createdAt,value
2023-03-26T00:01:52.649Z,69.25
2023-03-26T00:04:34.225Z,69.00
2023-03-26T00:07:14.114Z,69.17
2023-03-26T00:09:52.504Z,69.18
2023-03-26T00:12:30.715Z,69.06
2023-03-26T00:15:10.809Z,68.87
2023-03-26T00:17:49.496Z,68.92
2023-03-26T00:20:28.244Z,68.98
2023-03-26T00:23:08.501Z,69.11
2023-03-26T00:25:42.962Z,69.09
2023-03-26T00:28:13.774Z,69.15
2023-03-26T00:31:03.692Z,69.18
2023-03-26T00:33:41.822Z,69.10
2023-03-26T00:36:22.334Z,69.08
2023-03-26T00:38:54.384Z,69.14
2023-03-26T00:41:31.387Z,69.35
2023-03-26T00:44:11.841Z,69.25
2023-03-26T00:46:47.908Z,69.32
2023-03-26T00:49:27.910Z,69.50
2023-03-26T00:52:09.044Z,69.52
2023-03-26T00:54:48.413Z,69.16
2023-03-26T00:57:35.881Z,69.05
2023-03-26T01:00:15.793Z,69.19
2023-03-26T01:02:50.846Z,69.40
2023-03-26T01:05:45.458Z,69.37
2023-03-26T01:08:49.718Z,69.25
2023-03-26T01:11:34.459Z,69.43
2023-03-26T01:14:11.873Z,69.39
2023-03-26T01:17:04.762Z,69.57
2023-03-26T01:20:13.556Z,69.60
2023-03-26T01:22:53.602Z,69.74
2023-03-26T01:25:32.819Z,69.74
2023-03-26T01:28:13.034Z,69.49
2023-03-26T01:31:10.520Z,69.64
2023-03-26T01:34:04.507Z,69.46
2023-03-26T01:36:58.565Z,69.35
2023-03-26T01:40:12.434Z,69.52
2023-03-26T01:43:12.594Z,69.75
2023-03-26T01:45:53.146Z,69.73
2023-03-26T01:48:37.180Z,70.10
2023-03-26T01:51:25.550Z,69.93
2023-03-26T01:54:06.424Z,70.04
2023-03-26T01:57:09.632Z,69.84
2023-03-26T02:00:12.664Z,70.13
2023-03-26T02:03:21.057Z,70.17
2023-03-26T02:06:23.912Z,70.40
2023-03-26T02:09:24.219Z,70.40
2023-03-26T02:12:04.888Z,70.30
2023-03-26T02:14:44.060Z,70.13
2023-03-26T02:17:24.864Z,70.11
2023-03-26T02:20:06.713Z,70.33
2023-03-26T02:22:47.521Z,70.44
2023-03-26T02:25:26.219Z,70.63
2023-03-26T02:28:04.602Z,70.52
2023-03-26T02:30:46.091Z,70.74
2023-03-26T02:33:25.019Z,70.73
2023-03-26T02:36:00.054Z,70.68
2023-03-26T02:38:39.229Z,70.52
2023-03-26T02:41:17.421Z,70.39
2023-03-26T02:43:55.732Z,70.58
2023-03-26T02:46:34.505Z,70.69
2023-03-26T02:49:13.678Z,70.69
2023-03-26T02:51:56.910Z,70.60
2023-03-26T02:54:37.244Z,70.78
2023-03-26T02:57:17.196Z,71.00
2023-03-26T02:59:57.074Z,70.80
2023-03-26T03:02:39.191Z,70.70
2023-03-26T03:05:19.144Z,70.98
2023-03-26T03:07:58.342Z,70.77
2023-03-26T03:10:38.820Z,70.61
2023-03-26T03:13:19.424Z,70.64
2023-03-26T03:15:57.809Z,70.43
2023-03-26T03:18:35.969Z,70.56
2023-03-26T03:21:15.250Z,70.54
2023-03-26T03:23:53.929Z,70.51
2023-03-26T03:26:32.346Z,70.53
2023-03-26T03:29:13.250Z,70.35
2023-03-26T03:31:51.551Z,70.43
2023-03-26T03:34:29.538Z,70.14
2023-03-26T03:37:09.510Z,70.10
2023-03-26T03:39:48.419Z,70.09
2023-03-26T03:42:19.169Z,70.02
2023-03-26T03:44:55.239Z,70.26
2023-03-26T03:47:34.255Z,69.96
2023-03-26T03:50:13.379Z,69.82
2023-03-26T03:52:51.853Z,69.76
2023-03-26T03:55:30.241Z,69.68
2023-03-26T03:58:09.573Z,69.52
2023-03-26T04:00:48.881Z,69.48
2023-03-26T04:03:33.260Z,69.96
2023-03-26T04:06:13.494Z,69.62
2023-03-26T04:08:51.522Z,69.79
2023-03-26T04:11:30.342Z,69.60
2023-03-26T04:14:10.847Z,69.52
2023-03-26T04:16:49.470Z,69.38
2023-03-26T04:19:28.169Z,69.32
2023-03-26T04:22:08.312Z,69.19
2023-03-26T04:24:48.940Z,69.52
2023-03-26T04:27:32.326Z,69.24
2023-03-26T04:30:15.840Z,69.33
2023-03-26T04:32:46.669Z,69.14
2023-03-26T04:35:26.678Z,69.15
2023-03-26T04:38:07.784Z,69.10
2023-03-26T04:40:49.489Z,69.31
2023-03-26T04:43:28.696Z,69.40
2023-03-26T04:46:08.639Z,69.69
2023-03-26T04:48:46.841Z,69.66
2023-03-26T04:51:29.772Z,69.50
2023-03-26T04:54:10.028Z,69.84
2023-03-26T04:56:59.705Z,70.68
2023-03-26T04:59:37.351Z,71.45
2023-03-26T05:02:08.959Z,71.70
2023-03-26T05:04:50.431Z,72.21
2023-03-26T05:07:29.461Z,71.63
2023-03-26T05:10:10.056Z,71.72
2023-03-26T05:12:42.195Z,71.74
2023-03-26T05:15:22.767Z,71.56
2023-03-26T05:18:01.784Z,71.88
2023-03-26T05:20:40.685Z,72.00
2023-03-26T05:23:19.389Z,71.62
2023-03-26T05:25:57.962Z,71.63
2023-03-26T05:28:36.744Z,71.32
2023-03-26T05:31:17.147Z,71.35
2023-03-26T05:33:57.065Z,71.17
2023-03-26T05:36:29.113Z,70.98
2023-03-26T05:39:00.603Z,70.43
2023-03-26T05:41:37.794Z,70.17
2023-03-26T05:44:16.302Z,70.15
2023-03-26T05:46:46.926Z,70.29
2023-03-26T05:49:27.126Z,69.71
2023-03-26T05:52:05.871Z,69.59
2023-03-26T05:54:44.286Z,69.49
2023-03-26T05:57:24.252Z,68.89
2023-03-26T06:00:04.505Z,68.92
2023-03-26T06:02:36.802Z,68.52
2023-03-26T06:05:15.965Z,68.40
2023-03-26T06:07:55.254Z,67.38
2023-03-26T06:10:33.823Z,67.55
2023-03-26T06:13:04.415Z,67.31
2023-03-26T06:15:39.014Z,66.64
2023-03-26T06:18:20.163Z,66.07
2023-03-26T06:20:58.426Z,65.57
2023-03-26T06:23:36.961Z,65.06
2023-03-26T06:26:15.886Z,65.82
2023-03-26T06:28:54.394Z,66.11
2023-03-26T06:31:33.221Z,66.07
2023-03-26T06:34:12.970Z,66.90
2023-03-26T06:36:53.171Z,68.03
2023-03-26T06:39:31.051Z,69.46
2023-03-26T06:42:11.095Z,69.64
2023-03-26T06:44:49.199Z,69.80
2023-03-26T06:47:28.471Z,69.84
2023-03-26T06:50:06.859Z,70.25
2023-03-26T06:52:45.857Z,70.20
2023-03-26T06:55:25.157Z,70.85
2023-03-26T06:58:03.224Z,70.75
2023-03-26T07:00:44.986Z,70.89
2023-03-26T07:03:24.944Z,70.43
2023-03-26T07:06:03.122Z,70.32
2023-03-26T07:08:41.872Z,70.11
2023-03-26T07:11:21.030Z,69.77
2023-03-26T07:13:59.883Z,69.73
2023-03-26T07:16:30.443Z,68.99
2023-03-26T07:19:01.166Z,68.54
2023-03-26T07:21:41.081Z,67.98
2023-03-26T07:24:20.711Z,67.07
2023-03-26T07:27:22.132Z,66.24
2023-03-26T07:30:16.843Z,64.04
2023-03-26T07:33:09.036Z,63.56
2023-03-26T07:36:17.459Z,63.03
2023-03-26T07:39:41.648Z,63.62
2023-03-26T07:43:03.778Z,63.50
2023-03-26T07:45:42.940Z,62.78
2023-03-26T07:48:25.774Z,63.24
2023-03-26T07:51:03.380Z,62.94
2023-03-26T07:53:42.301Z,63.36
2023-03-26T07:56:30.095Z,63.15
2023-03-26T07:59:18.125Z,62.95
2023-03-26T08:02:07.789Z,63.39
2023-03-26T08:05:21.021Z,63.75
2023-03-26T08:08:07.746Z,64.04
2023-03-26T08:11:02.526Z,63.66
2023-03-26T08:14:23.021Z,63.71
2023-03-26T08:17:19.212Z,63.23
2023-03-26T08:20:32.816Z,62.72
2023-03-26T08:23:52.747Z,63.03
2023-03-26T08:27:16.791Z,62.59
2023-03-26T08:30:26.630Z,62.20
2023-03-26T08:33:13.095Z,62.37
2023-03-26T08:35:46.155Z,63.09
2023-03-26T08:38:23.112Z,62.78
2023-03-26T08:41:07.539Z,63.65
2023-03-26T08:44:23.133Z,63.85
2023-03-26T08:47:44.725Z,63.75
2023-03-26T08:50:38.652Z,63.94
2023-03-26T08:54:00.350Z,63.45
2023-03-26T08:56:55.517Z,63.58
2023-03-26T09:00:25.279Z,63.15
2023-03-26T09:03:19.407Z,64.16
2023-03-26T09:06:35.933Z,65.30
2023-03-26T09:09:59.604Z,66.38
2023-03-26T09:13:16.371Z,67.15
2023-03-26T09:16:08.694Z,67.07
2023-03-26T09:19:17.347Z,66.83
2023-03-26T09:22:24.419Z,66.76
2023-03-26T09:25:32.132Z,66.52
2023-03-26T09:28:40.051Z,63.94
2023-03-26T09:31:32.470Z,61.26
2023-03-26T09:34:31.230Z,59.17
2023-03-26T09:37:56.680Z,58.86
2023-03-26T09:40:45.282Z,57.36
2023-03-26T09:43:59.746Z,56.53
2023-03-26T09:46:58.659Z,55.59
2023-03-26T09:50:17.103Z,56.39
2023-03-26T09:53:22.663Z,56.98
2023-03-26T09:56:19.916Z,57.18
2023-03-26T09:59:30.789Z,58.05
2023-03-26T10:02:46.843Z,58.38
2023-03-26T10:05:48.222Z,58.82
2023-03-26T10:09:02.731Z,59.34
2023-03-26T10:12:03.727Z,58.89
2023-03-26T10:15:33.573Z,58.37
2023-03-26T10:18:27.928Z,57.26
2023-03-26T10:22:01.763Z,55.90
2023-03-26T10:25:23.895Z,56.49
2023-03-26T10:28:32.818Z,59.57
2023-03-26T10:31:24.630Z,59.93
2023-03-26T10:34:30.113Z,60.00
2023-03-26T10:38:03.688Z,60.28
2023-03-26T10:41:15.929Z,60.46
2023-03-26T10:44:27.606Z,58.83
2023-03-26T10:47:39.072Z,57.65
2023-03-26T10:50:46.961Z,57.82
2023-03-26T10:53:56.039Z,56.65
2023-03-26T10:56:49.780Z,56.28
2023-03-26T10:59:30.890Z,59.58
2023-03-26T11:02:29.366Z,61.75
2023-03-26T11:05:45.922Z,63.66
2023-03-26T11:08:36.119Z,63.77
2023-03-26T11:11:46.838Z,62.93
2023-03-26T11:14:45.349Z,62.15
2023-03-26T11:17:39.186Z,62.49
2023-03-26T11:20:50.478Z,61.17
2023-03-26T11:23:46.018Z,60.89
2023-03-26T11:27:14.467Z,61.66
2023-03-26T11:30:18.008Z,61.46
2023-03-26T11:33:05.062Z,62.13
2023-03-26T11:35:50.129Z,62.49
2023-03-26T11:38:37.796Z,62.17
2023-03-26T11:41:31.540Z,62.38
2023-03-26T11:44:32.323Z,62.23
2023-03-26T11:47:16.731Z,61.71
2023-03-26T11:49:54.018Z,61.51
2023-03-26T11:52:29.713Z,60.70
2023-03-26T11:55:11.926Z,61.21
2023-03-26T11:57:57.965Z,61.26
2023-03-26T12:00:31.818Z,60.03
2023-03-26T12:03:21.479Z,59.62
2023-03-26T12:05:59.864Z,59.34
2023-03-26T12:08:47.760Z,59.16
2023-03-26T12:11:35.650Z,58.57
2023-03-26T12:14:24.120Z,58.24
2023-03-26T12:17:14.884Z,58.25
2023-03-26T12:19:50.500Z,58.21
2023-03-26T12:22:38.171Z,59.00
2023-03-26T12:25:25.605Z,59.26
2023-03-26T12:28:23.708Z,59.87
2023-03-26T12:31:21.831Z,59.13
2023-03-26T12:34:22.565Z,58.66
2023-03-26T12:37:03.839Z,58.67
2023-03-26T12:40:09.552Z,58.63
2023-03-26T12:44:46.407Z,57.82
2023-03-26T12:47:46.129Z,56.56
2023-03-26T12:48:59.006Z,55.83
2023-03-26T12:51:45.728Z,55.14
2023-03-26T12:55:00.409Z,54.88
2023-03-26T12:57:52.583Z,52.84
2023-03-26T13:00:56.024Z,52.60
2023-03-26T13:04:34.847Z,52.06
2023-03-26T13:07:47.769Z,52.13
2023-03-26T13:11:11.413Z,52.25
2023-03-26T13:14:21.423Z,52.18
2023-03-26T13:17:28.496Z,52.02
2023-03-26T13:20:37.868Z,52.39
2023-03-26T13:23:24.693Z,51.99
2023-03-26T13:26:51.334Z,52.57
2023-03-26T13:29:47.486Z,53.69
2023-03-26T13:32:45.367Z,53.73
2023-03-26T13:36:06.025Z,53.54
2023-03-26T13:39:11.779Z,52.90
2023-03-26T13:42:38.536Z,52.34
2023-03-26T13:45:43.915Z,52.85
2023-03-26T13:48:51.608Z,52.71
2023-03-26T13:51:52.630Z,53.11
2023-03-26T13:54:37.490Z,53.49
2023-03-26T13:57:35.198Z,53.93
2023-03-26T14:00:27.747Z,53.43
2023-03-26T14:03:17.902Z,52.32
2023-03-26T14:05:58.716Z,52.33
2023-03-26T14:09:08.172Z,52.20
2023-03-26T14:12:06.323Z,52.25
2023-03-26T14:15:14.784Z,52.53
2023-03-26T14:18:33.419Z,51.52
2023-03-26T14:21:37.779Z,51.61
2023-03-26T14:24:55.262Z,51.67
2023-03-26T14:27:56.840Z,51.61
2023-03-26T14:31:30.717Z,50.82
2023-03-26T14:34:56.755Z,50.73
2023-03-26T14:38:08.479Z,50.12
2023-03-26T14:41:02.185Z,50.65
2023-03-26T14:43:58.598Z,50.28
2023-03-26T14:46:39.839Z,50.89
2023-03-26T14:49:54.325Z,51.37
2023-03-26T14:52:53.000Z,51.30
2023-03-26T14:55:48.882Z,51.43
2023-03-26T14:58:52.747Z,51.17
2023-03-26T15:01:56.562Z,51.39
2023-03-26T15:04:50.220Z,51.30
2023-03-26T15:08:02.337Z,51.49
2023-03-26T15:11:07.744Z,51.40
2023-03-26T15:14:37.428Z,51.89
2023-03-26T15:17:59.036Z,51.40
2023-03-26T15:21:34.793Z,51.47
2023-03-26T15:24:53.023Z,51.71
2023-03-26T15:27:55.812Z,52.53
2023-03-26T15:31:14.478Z,52.25
2023-03-26T15:34:20.659Z,52.27
2023-03-26T15:37:43.961Z,52.21
2023-03-26T15:41:00.574Z,52.26
2023-03-26T15:44:24.954Z,52.39
2023-03-26T15:47:29.123Z,52.14
2023-03-26T15:50:36.687Z,52.38
2023-03-26T15:53:48.940Z,51.98
2023-03-26T15:57:09.154Z,51.50
2023-03-26T16:00:19.986Z,51.00
2023-03-26T16:03:16.750Z,50.82
2023-03-26T16:06:23.415Z,51.32
2023-03-26T16:09:39.373Z,51.47
2023-03-26T16:12:33.865Z,52.23
2023-03-26T16:15:35.668Z,52.60
2023-03-26T16:18:23.065Z,53.14
2023-03-26T16:21:30.505Z,53.14
2023-03-26T16:24:08.498Z,53.71
2023-03-26T16:26:54.337Z,53.81
2023-03-26T16:29:34.591Z,54.03
2023-03-26T16:32:41.106Z,54.29
2023-03-26T16:35:17.772Z,53.78
2023-03-26T16:38:11.826Z,54.19
2023-03-26T16:41:20.093Z,54.81
2023-03-26T16:44:32.673Z,54.73
2023-03-26T16:47:49.609Z,54.96
2023-03-26T16:51:01.322Z,55.45
2023-03-26T16:53:58.465Z,56.24
2023-03-26T16:56:50.333Z,55.89
2023-03-26T17:00:06.597Z,56.64
2023-03-26T17:02:42.956Z,56.60
2023-03-26T17:05:19.862Z,57.11
2023-03-26T17:08:36.179Z,57.06
2023-03-26T17:11:36.800Z,57.20
2023-03-26T17:14:52.976Z,57.53
2023-03-26T17:17:59.038Z,57.91
2023-03-26T17:21:04.206Z,57.57
2023-03-26T17:24:15.228Z,58.37
2023-03-26T17:27:24.223Z,58.09
2023-03-26T17:30:14.820Z,58.37
2023-03-26T17:33:18.271Z,58.28
2023-03-26T17:36:15.208Z,58.46
2023-03-26T17:39:04.711Z,58.66
2023-03-26T17:42:21.811Z,58.42
2023-03-26T17:45:18.966Z,59.12
2023-03-26T17:48:25.503Z,58.95
2023-03-26T17:51:23.622Z,59.21
2023-03-26T17:54:01.749Z,59.39
2023-03-26T17:56:40.613Z,59.90
2023-03-26T17:59:25.230Z,59.57
2023-03-26T18:02:08.211Z,59.84
2023-03-26T18:04:46.197Z,59.68
2023-03-26T18:07:52.293Z,60.16
2023-03-26T18:10:46.678Z,60.05
2023-03-26T18:13:34.714Z,60.12
2023-03-26T18:16:40.774Z,60.18
2023-03-26T18:19:23.367Z,60.44
2023-03-26T18:22:19.014Z,60.55
2023-03-26T18:25:00.141Z,60.32
2023-03-26T18:27:45.954Z,60.54
2023-03-26T18:30:27.031Z,60.95
2023-03-26T18:33:17.072Z,60.79
2023-03-26T18:36:00.226Z,60.77
2023-03-26T18:38:41.117Z,61.03
2023-03-26T18:41:42.164Z,61.09
2023-03-26T18:44:21.670Z,61.34
2023-03-26T18:47:06.607Z,61.43
2023-03-26T18:49:47.051Z,61.70
2023-03-26T18:52:25.343Z,62.00
2023-03-26T18:55:04.820Z,61.86
2023-03-26T18:57:43.678Z,61.96
2023-03-26T19:00:34.916Z,61.86
2023-03-26T19:03:18.047Z,61.73
2023-03-26T19:05:58.664Z,61.67
2023-03-26T19:08:31.285Z,61.76
2023-03-26T19:11:13.824Z,61.74
2023-03-26T19:14:08.576Z,61.93
2023-03-26T19:16:48.619Z,62.12
2023-03-26T19:19:32.258Z,61.71
2023-03-26T19:22:08.023Z,62.37
2023-03-26T19:24:43.575Z,62.45
2023-03-26T19:27:21.970Z,62.64
2023-03-26T19:30:01.034Z,62.71
2023-03-26T19:32:38.992Z,62.82
2023-03-26T19:35:24.872Z,62.96
2023-03-26T19:38:03.121Z,63.01
2023-03-26T19:40:43.608Z,62.67
2023-03-26T19:43:22.589Z,62.94
2023-03-26T19:46:02.100Z,62.95
2023-03-26T19:48:46.032Z,63.00
2023-03-26T19:51:34.287Z,63.42
2023-03-26T19:54:20.099Z,63.58
2023-03-26T19:56:58.683Z,63.68
2023-03-26T19:59:29.479Z,63.57
2023-03-26T20:02:15.429Z,63.79
2023-03-26T20:04:46.165Z,63.99
2023-03-26T20:07:35.425Z,64.29
2023-03-26T20:10:17.598Z,64.02
2023-03-26T20:12:48.521Z,64.21
2023-03-26T20:15:29.400Z,64.30
2023-03-26T20:18:05.528Z,64.49
2023-03-26T20:20:45.843Z,64.47
2023-03-26T20:23:25.838Z,64.66
2023-03-26T20:26:05.352Z,64.90
2023-03-26T20:28:47.672Z,64.71
2023-03-26T20:31:27.376Z,64.89
2023-03-26T20:34:05.306Z,65.02
2023-03-26T20:36:42.876Z,64.96
2023-03-26T20:39:21.026Z,65.17
2023-03-26T20:41:59.208Z,65.27
2023-03-26T20:44:37.247Z,65.42
2023-03-26T20:47:17.548Z,65.38
2023-03-26T20:49:56.372Z,65.60
2023-03-26T20:52:33.721Z,65.47
2023-03-26T20:55:15.937Z,65.84
2023-03-26T20:57:54.275Z,65.81
2023-03-26T21:00:33.027Z,65.80
2023-03-26T21:03:13.686Z,65.94
2023-03-26T21:05:52.783Z,65.98
2023-03-26T21:08:36.048Z,66.04
2023-03-26T21:11:54.139Z,66.07
2023-03-26T21:14:44.671Z,66.48
2023-03-26T21:17:24.303Z,66.52
2023-03-26T21:20:12.526Z,66.77
2023-03-26T21:23:09.415Z,66.51
2023-03-26T21:26:18.681Z,66.84
2023-03-26T21:28:50.784Z,66.80
2023-03-26T21:31:25.011Z,66.77
2023-03-26T21:34:05.803Z,66.57
2023-03-26T21:36:44.064Z,66.45
2023-03-26T21:39:23.924Z,66.74
2023-03-26T21:42:05.194Z,66.59
2023-03-26T21:44:45.021Z,66.89
2023-03-26T21:47:23.303Z,66.60
2023-03-26T21:50:03.255Z,66.73
2023-03-26T21:52:47.986Z,66.75
2023-03-26T21:55:26.909Z,66.71
2023-03-26T21:58:51.850Z,66.78
2023-03-26T22:01:52.055Z,66.52
2023-03-26T22:04:46.865Z,66.48
2023-03-26T22:07:56.440Z,66.75
2023-03-26T22:10:34.153Z,66.69
2023-03-26T22:13:13.093Z,66.94
2023-03-26T22:15:43.824Z,67.14
2023-03-26T22:18:22.515Z,67.41
2023-03-26T22:20:54.737Z,67.44
2023-03-26T22:23:38.235Z,67.31
2023-03-26T22:26:09.514Z,67.42
2023-03-26T22:28:47.493Z,67.34
2023-03-26T22:31:26.849Z,67.03
2023-03-26T22:34:06.937Z,67.13
2023-03-26T22:36:45.638Z,67.14
2023-03-26T22:39:24.275Z,67.33
2023-03-26T22:42:04.214Z,67.29
2023-03-26T22:44:41.650Z,67.22
2023-03-26T22:47:22.108Z,67.23
2023-03-26T22:49:59.129Z,67.07
2023-03-26T22:52:37.178Z,67.38
2023-03-26T22:55:16.942Z,67.22
2023-03-26T22:58:07.825Z,66.93
2023-03-26T23:00:47.317Z,66.68
2023-03-26T23:03:35.306Z,66.60
2023-03-26T23:06:12.804Z,66.24
2023-03-26T23:08:50.203Z,66.51
2023-03-26T23:11:30.036Z,66.14
2023-03-26T23:14:07.417Z,66.40
2023-03-26T23:16:46.064Z,66.51
2023-03-26T23:19:23.566Z,66.45
2023-03-26T23:22:01.364Z,66.31
2023-03-26T23:24:42.165Z,66.15
2023-03-26T23:27:22.693Z,66.10
2023-03-26T23:30:01.733Z,66.29
2023-03-26T23:32:32.411Z,66.21
2023-03-26T23:35:12.392Z,66.12
2023-03-26T23:37:51.500Z,66.15
2023-03-26T23:40:28.920Z,66.42
2023-03-26T23:43:07.290Z,66.31
2023-03-26T23:45:46.048Z,66.22
2023-03-26T23:48:22.753Z,66.31
2023-03-26T23:51:02.869Z,66.35
2023-03-26T23:53:39.642Z,66.27
2023-03-26T23:56:13.857Z,66.37
2023-03-26T23:58:51.971Z,66.36
